sensor_id;sensor_type;location;lat;lon;timestamp;P1;durP1;ratioP1;P2;durP2;ratioP2
23680;SDS011;62915;50.832;4.462;2022-11-20T00:01:11;43.03;;;27.52;;
23680;SDS011;62915;50.832;4.462;2022-11-20T00:03:38;48.03;;;27.38;;
23680;SDS011;62915;50.832;4.462;2022-11-20T00:06:06;47.50;;;27.48;;
23680;SDS011;62915;50.832;4.462;2022-11-20T00:08:33;47.58;;;28.00;;
23680;SDS011;62915;50.832;4.462;2022-11-20T00:11:06;50.35;;;27.13;;
23680;SDS011;62915;50.832;4.462;2022-11-20T00:16:01;46.78;;;26.70;;
23680;SDS011;62915;50.832;4.462;2022-11-20T00:18:37;51.42;;;27.05;;
23680;SDS011;62915;50.832;4.462;2022-11-20T00:21:03;45.17;;;27.73;;
23680;SDS011;62915;50.832;4.462;2022-11-20T00:23:29;44.65;;;27.40;;
23680;SDS011;62915;50.832;4.462;2022-11-20T00:25:56;46.08;;;26.83;;
23680;SDS011;62915;50.832;4.462;2022-11-20T00:28:25;45.30;;;27.60;;
23680;SDS011;62915;50.832;4.462;2022-11-20T00:30:51;44.55;;;27.45;;
23680;SDS011;62915;50.832;4.462;2022-11-20T00:33:17;47.42;;;27.52;;
23680;SDS011;62915;50.832;4.462;2022-11-20T00:35:42;52.05;;;28.65;;
23680;SDS011;62915;50.832;4.462;2022-11-20T00:38:08;48.53;;;26.45;;
23680;SDS011;62915;50.832;4.462;2022-11-20T00:40:34;52.83;;;30.23;;
23680;SDS011;62915;50.832;4.462;2022-11-20T00:42:59;52.65;;;28.20;;
23680;SDS011;62915;50.832;4.462;2022-11-20T00:45:26;45.63;;;27.88;;
23680;SDS011;62915;50.832;4.462;2022-11-20T00:47:51;46.17;;;28.38;;
23680;SDS011;62915;50.832;4.462;2022-11-20T00:50:17;48.97;;;28.10;;
23680;SDS011;62915;50.832;4.462;2022-11-20T00:52:44;53.30;;;29.40;;
23680;SDS011;62915;50.832;4.462;2022-11-20T00:55:10;55.53;;;29.10;;
23680;SDS011;62915;50.832;4.462;2022-11-20T00:57:36;48.72;;;29.95;;
23680;SDS011;62915;50.832;4.462;2022-11-20T01:00:03;51.60;;;29.52;;
23680;SDS011;62915;50.832;4.462;2022-11-20T01:02:29;49.85;;;28.65;;
23680;SDS011;62915;50.832;4.462;2022-11-20T01:04:55;48.70;;;28.77;;
23680;SDS011;62915;50.832;4.462;2022-11-20T01:07:20;47.40;;;27.77;;
23680;SDS011;62915;50.832;4.462;2022-11-20T01:09:46;48.78;;;28.40;;
23680;SDS011;62915;50.832;4.462;2022-11-20T01:12:12;43.22;;;26.17;;
23680;SDS011;62915;50.832;4.462;2022-11-20T01:14:37;47.45;;;27.77;;
23680;SDS011;62915;50.832;4.462;2022-11-20T01:17:03;44.25;;;26.40;;
23680;SDS011;62915;50.832;4.462;2022-11-20T01:19:29;43.97;;;26.90;;
23680;SDS011;62915;50.832;4.462;2022-11-20T01:21:55;49.00;;;26.98;;
23680;SDS011;62915;50.832;4.462;2022-11-20T01:24:21;44.13;;;27.33;;
23680;SDS011;62915;50.832;4.462;2022-11-20T01:26:48;44.10;;;25.92;;
23680;SDS011;62915;50.832;4.462;2022-11-20T01:29:23;43.80;;;26.08;;
23680;SDS011;62915;50.832;4.462;2022-11-20T01:31:50;44.63;;;26.50;;
23680;SDS011;62915;50.832;4.462;2022-11-20T01:34:18;48.58;;;27.88;;
23680;SDS011;62915;50.832;4.462;2022-11-20T01:36:47;44.53;;;27.40;;
23680;SDS011;62915;50.832;4.462;2022-11-20T01:39:15;44.70;;;26.33;;
23680;SDS011;62915;50.832;4.462;2022-11-20T01:41:45;46.65;;;26.98;;
23680;SDS011;62915;50.832;4.462;2022-11-20T01:47:08;48.10;;;28.40;;
23680;SDS011;62915;50.832;4.462;2022-11-20T01:49:37;44.53;;;27.27;;
23680;SDS011;62915;50.832;4.462;2022-11-20T01:52:13;46.20;;;28.55;;
23680;SDS011;62915;50.832;4.462;2022-11-20T01:54:44;48.00;;;27.42;;
23680;SDS011;62915;50.832;4.462;2022-11-20T01:57:16;47.33;;;27.05;;
23680;SDS011;62915;50.832;4.462;2022-11-20T01:59:47;53.80;;;29.02;;
23680;SDS011;62915;50.832;4.462;2022-11-20T02:02:18;46.45;;;27.80;;
23680;SDS011;62915;50.832;4.462;2022-11-20T02:04:44;47.70;;;27.67;;
23680;SDS011;62915;50.832;4.462;2022-11-20T02:07:11;55.13;;;28.17;;
23680;SDS011;62915;50.832;4.462;2022-11-20T02:12:18;51.88;;;27.45;;
23680;SDS011;62915;50.832;4.462;2022-11-20T02:15:04;49.38;;;27.30;;
23680;SDS011;62915;50.832;4.462;2022-11-20T02:17:38;45.92;;;27.38;;
23680;SDS011;62915;50.832;4.462;2022-11-20T02:20:05;62.28;;;29.98;;
23680;SDS011;62915;50.832;4.462;2022-11-20T02:22:36;45.50;;;27.55;;
23680;SDS011;62915;50.832;4.462;2022-11-20T02:25:24;50.35;;;28.17;;
23680;SDS011;62915;50.832;4.462;2022-11-20T02:30:21;50.40;;;29.45;;
23680;SDS011;62915;50.832;4.462;2022-11-20T02:32:48;53.50;;;28.05;;
23680;SDS011;62915;50.832;4.462;2022-11-20T02:37:44;48.45;;;27.42;;
23680;SDS011;62915;50.832;4.462;2022-11-20T02:40:13;63.42;;;29.15;;
23680;SDS011;62915;50.832;4.462;2022-11-20T02:42:39;54.00;;;29.55;;
23680;SDS011;62915;50.832;4.462;2022-11-20T02:45:05;56.65;;;30.20;;
23680;SDS011;62915;50.832;4.462;2022-11-20T02:47:32;56.58;;;30.92;;
23680;SDS011;62915;50.832;4.462;2022-11-20T02:49:58;51.28;;;30.05;;
23680;SDS011;62915;50.832;4.462;2022-11-20T02:52:25;61.72;;;30.95;;
23680;SDS011;62915;50.832;4.462;2022-11-20T02:54:53;57.30;;;30.55;;
23680;SDS011;62915;50.832;4.462;2022-11-20T02:57:19;55.70;;;32.35;;
23680;SDS011;62915;50.832;4.462;2022-11-20T02:59:46;56.45;;;30.00;;
23680;SDS011;62915;50.832;4.462;2022-11-20T03:02:11;57.65;;;29.13;;
23680;SDS011;62915;50.832;4.462;2022-11-20T03:04:37;59.85;;;31.20;;
23680;SDS011;62915;50.832;4.462;2022-11-20T03:07:03;54.85;;;29.40;;
23680;SDS011;62915;50.832;4.462;2022-11-20T03:09:30;52.03;;;28.95;;
23680;SDS011;62915;50.832;4.462;2022-11-20T03:11:56;51.13;;;27.80;;
23680;SDS011;62915;50.832;4.462;2022-11-20T03:14:22;52.50;;;26.70;;
23680;SDS011;62915;50.832;4.462;2022-11-20T03:16:47;51.17;;;27.05;;
23680;SDS011;62915;50.832;4.462;2022-11-20T03:19:13;44.42;;;25.50;;
23680;SDS011;62915;50.832;4.462;2022-11-20T03:21:39;45.55;;;25.33;;
23680;SDS011;62915;50.832;4.462;2022-11-20T03:24:05;45.30;;;25.02;;
23680;SDS011;62915;50.832;4.462;2022-11-20T03:26:31;45.58;;;23.88;;
23680;SDS011;62915;50.832;4.462;2022-11-20T03:28:57;47.58;;;23.90;;
23680;SDS011;62915;50.832;4.462;2022-11-20T03:31:29;45.13;;;22.65;;
23680;SDS011;62915;50.832;4.462;2022-11-20T03:33:57;38.33;;;20.65;;
23680;SDS011;62915;50.832;4.462;2022-11-20T03:36:26;37.38;;;20.77;;
23680;SDS011;62915;50.832;4.462;2022-11-20T03:38:53;34.78;;;20.75;;
23680;SDS011;62915;50.832;4.462;2022-11-20T03:41:20;37.95;;;20.42;;
23680;SDS011;62915;50.832;4.462;2022-11-20T03:43:49;39.13;;;19.85;;
23680;SDS011;62915;50.832;4.462;2022-11-20T03:46:16;39.28;;;21.98;;
23680;SDS011;62915;50.832;4.462;2022-11-20T03:48:43;45.30;;;21.25;;
23680;SDS011;62915;50.832;4.462;2022-11-20T03:51:10;34.70;;;20.52;;
23680;SDS011;62915;50.832;4.462;2022-11-20T03:53:42;37.92;;;20.83;;
23680;SDS011;62915;50.832;4.462;2022-11-20T03:56:10;44.25;;;22.00;;
23680;SDS011;62915;50.832;4.462;2022-11-20T03:58:38;38.05;;;20.23;;
23680;SDS011;62915;50.832;4.462;2022-11-20T04:01:07;40.78;;;21.17;;
23680;SDS011;62915;50.832;4.462;2022-11-20T04:03:33;38.80;;;19.05;;
23680;SDS011;62915;50.832;4.462;2022-11-20T04:06:07;41.17;;;20.85;;
23680;SDS011;62915;50.832;4.462;2022-11-20T04:08:38;44.42;;;22.42;;
23680;SDS011;62915;50.832;4.462;2022-11-20T04:11:21;40.80;;;21.75;;
23680;SDS011;62915;50.832;4.462;2022-11-20T04:13:50;38.33;;;21.17;;
23680;SDS011;62915;50.832;4.462;2022-11-20T04:16:17;38.13;;;20.50;;
23680;SDS011;62915;50.832;4.462;2022-11-20T04:18:44;44.17;;;21.30;;
23680;SDS011;62915;50.832;4.462;2022-11-20T04:21:10;43.53;;;23.23;;
23680;SDS011;62915;50.832;4.462;2022-11-20T04:23:39;41.08;;;21.42;;
23680;SDS011;62915;50.832;4.462;2022-11-20T04:26:08;43.95;;;23.13;;
23680;SDS011;62915;50.832;4.462;2022-11-20T04:28:36;42.35;;;22.58;;
23680;SDS011;62915;50.832;4.462;2022-11-20T04:31:07;43.78;;;21.98;;
23680;SDS011;62915;50.832;4.462;2022-11-20T04:33:38;42.28;;;23.08;;
23680;SDS011;62915;50.832;4.462;2022-11-20T04:36:10;49.00;;;24.38;;
23680;SDS011;62915;50.832;4.462;2022-11-20T04:38:39;48.78;;;23.35;;
23680;SDS011;62915;50.832;4.462;2022-11-20T04:41:07;48.75;;;24.15;;
23680;SDS011;62915;50.832;4.462;2022-11-20T04:43:38;47.55;;;23.80;;
23680;SDS011;62915;50.832;4.462;2022-11-20T04:46:04;54.35;;;24.35;;
23680;SDS011;62915;50.832;4.462;2022-11-20T04:48:30;50.03;;;25.27;;
23680;SDS011;62915;50.832;4.462;2022-11-20T04:50:56;50.92;;;24.73;;
23680;SDS011;62915;50.832;4.462;2022-11-20T04:53:22;50.53;;;24.63;;
23680;SDS011;62915;50.832;4.462;2022-11-20T04:55:48;50.35;;;26.02;;
23680;SDS011;62915;50.832;4.462;2022-11-20T04:58:14;48.50;;;24.30;;
23680;SDS011;62915;50.832;4.462;2022-11-20T05:00:40;47.95;;;22.98;;
23680;SDS011;62915;50.832;4.462;2022-11-20T05:03:06;51.03;;;25.00;;
23680;SDS011;62915;50.832;4.462;2022-11-20T05:05:33;49.75;;;24.05;;
23680;SDS011;62915;50.832;4.462;2022-11-20T05:07:59;53.20;;;25.40;;
23680;SDS011;62915;50.832;4.462;2022-11-20T05:10:28;50.80;;;25.23;;
23680;SDS011;62915;50.832;4.462;2022-11-20T05:12:56;51.03;;;24.48;;
23680;SDS011;62915;50.832;4.462;2022-11-20T05:15:22;49.25;;;23.92;;
23680;SDS011;62915;50.832;4.462;2022-11-20T05:17:48;52.03;;;25.25;;
23680;SDS011;62915;50.832;4.462;2022-11-20T05:20:14;49.22;;;26.27;;
23680;SDS011;62915;50.832;4.462;2022-11-20T05:22:40;62.00;;;25.60;;
23680;SDS011;62915;50.832;4.462;2022-11-20T05:25:06;57.13;;;25.75;;
23680;SDS011;62915;50.832;4.462;2022-11-20T05:27:32;64.70;;;26.42;;
23680;SDS011;62915;50.832;4.462;2022-11-20T05:29:57;63.08;;;27.90;;
23680;SDS011;62915;50.832;4.462;2022-11-20T05:32:23;63.92;;;27.33;;
23680;SDS011;62915;50.832;4.462;2022-11-20T05:34:50;57.95;;;26.15;;
23680;SDS011;62915;50.832;4.462;2022-11-20T05:37:17;64.75;;;27.40;;
23680;SDS011;62915;50.832;4.462;2022-11-20T05:39:43;61.95;;;27.02;;
23680;SDS011;62915;50.832;4.462;2022-11-20T05:42:09;64.15;;;28.13;;
23680;SDS011;62915;50.832;4.462;2022-11-20T05:44:53;62.30;;;27.30;;
23680;SDS011;62915;50.832;4.462;2022-11-20T05:47:19;71.88;;;28.50;;
23680;SDS011;62915;50.832;4.462;2022-11-20T05:49:45;71.78;;;28.25;;
23680;SDS011;62915;50.832;4.462;2022-11-20T05:52:11;61.65;;;26.40;;
23680;SDS011;62915;50.832;4.462;2022-11-20T05:54:37;68.85;;;28.13;;
23680;SDS011;62915;50.832;4.462;2022-11-20T05:57:02;72.57;;;28.55;;
23680;SDS011;62915;50.832;4.462;2022-11-20T05:59:29;72.32;;;29.15;;
23680;SDS011;62915;50.832;4.462;2022-11-20T06:01:55;72.65;;;28.45;;
23680;SDS011;62915;50.832;4.462;2022-11-20T06:04:22;68.55;;;27.85;;
23680;SDS011;62915;50.832;4.462;2022-11-20T06:06:47;75.25;;;30.27;;
23680;SDS011;62915;50.832;4.462;2022-11-20T06:09:13;70.10;;;28.92;;
23680;SDS011;62915;50.832;4.462;2022-11-20T06:11:39;75.30;;;28.17;;
23680;SDS011;62915;50.832;4.462;2022-11-20T06:14:04;75.63;;;30.20;;
23680;SDS011;62915;50.832;4.462;2022-11-20T06:16:30;71.13;;;27.73;;
23680;SDS011;62915;50.832;4.462;2022-11-20T06:18:56;71.70;;;29.40;;
23680;SDS011;62915;50.832;4.462;2022-11-20T06:21:22;84.10;;;30.92;;
23680;SDS011;62915;50.832;4.462;2022-11-20T06:23:48;78.03;;;30.42;;
23680;SDS011;62915;50.832;4.462;2022-11-20T06:26:16;73.95;;;29.42;;
23680;SDS011;62915;50.832;4.462;2022-11-20T06:28:47;78.95;;;29.55;;
23680;SDS011;62915;50.832;4.462;2022-11-20T06:31:15;78.50;;;29.70;;
23680;SDS011;62915;50.832;4.462;2022-11-20T06:33:45;73.00;;;29.55;;
23680;SDS011;62915;50.832;4.462;2022-11-20T06:36:12;89.75;;;29.50;;
23680;SDS011;62915;50.832;4.462;2022-11-20T06:38:39;77.25;;;29.73;;
23680;SDS011;62915;50.832;4.462;2022-11-20T06:41:06;84.70;;;28.67;;
23680;SDS011;62915;50.832;4.462;2022-11-20T06:43:36;79.88;;;29.95;;
23680;SDS011;62915;50.832;4.462;2022-11-20T06:46:02;83.70;;;30.80;;
23680;SDS011;62915;50.832;4.462;2022-11-20T06:48:28;77.57;;;29.60;;
23680;SDS011;62915;50.832;4.462;2022-11-20T06:50:55;78.80;;;32.05;;
23680;SDS011;62915;50.832;4.462;2022-11-20T06:53:21;86.55;;;29.70;;
23680;SDS011;62915;50.832;4.462;2022-11-20T06:55:48;79.20;;;29.52;;
23680;SDS011;62915;50.832;4.462;2022-11-20T06:58:15;76.30;;;28.35;;
23680;SDS011;62915;50.832;4.462;2022-11-20T07:00:42;74.95;;;28.15;;
23680;SDS011;62915;50.832;4.462;2022-11-20T07:03:09;88.85;;;30.98;;
23680;SDS011;62915;50.832;4.462;2022-11-20T07:05:37;82.63;;;30.05;;
23680;SDS011;62915;50.832;4.462;2022-11-20T07:08:03;93.10;;;30.27;;
23680;SDS011;62915;50.832;4.462;2022-11-20T07:10:31;80.60;;;29.60;;
23680;SDS011;62915;50.832;4.462;2022-11-20T07:12:57;80.88;;;30.77;;
23680;SDS011;62915;50.832;4.462;2022-11-20T07:15:23;81.22;;;30.77;;
23680;SDS011;62915;50.832;4.462;2022-11-20T07:17:50;86.07;;;29.95;;
23680;SDS011;62915;50.832;4.462;2022-11-20T07:20:16;83.80;;;31.73;;
23680;SDS011;62915;50.832;4.462;2022-11-20T07:22:42;80.75;;;31.17;;
23680;SDS011;62915;50.832;4.462;2022-11-20T07:25:09;89.20;;;29.95;;
23680;SDS011;62915;50.832;4.462;2022-11-20T07:27:35;81.18;;;31.58;;
23680;SDS011;62915;50.832;4.462;2022-11-20T07:30:02;85.15;;;29.65;;
23680;SDS011;62915;50.832;4.462;2022-11-20T07:32:29;79.53;;;30.27;;
23680;SDS011;62915;50.832;4.462;2022-11-20T07:34:55;77.70;;;31.00;;
23680;SDS011;62915;50.832;4.462;2022-11-20T07:37:20;77.43;;;29.70;;
23680;SDS011;62915;50.832;4.462;2022-11-20T07:39:46;84.78;;;32.25;;
23680;SDS011;62915;50.832;4.462;2022-11-20T07:42:12;89.22;;;31.75;;
23680;SDS011;62915;50.832;4.462;2022-11-20T07:44:38;81.75;;;31.52;;
23680;SDS011;62915;50.832;4.462;2022-11-20T07:47:04;85.60;;;30.50;;
23680;SDS011;62915;50.832;4.462;2022-11-20T07:49:30;81.80;;;32.47;;
23680;SDS011;62915;50.832;4.462;2022-11-20T07:51:55;84.70;;;30.83;;
23680;SDS011;62915;50.832;4.462;2022-11-20T07:54:21;84.38;;;30.08;;
23680;SDS011;62915;50.832;4.462;2022-11-20T07:56:50;77.30;;;29.58;;
23680;SDS011;62915;50.832;4.462;2022-11-20T07:59:17;86.18;;;30.92;;
23680;SDS011;62915;50.832;4.462;2022-11-20T08:01:43;88.00;;;30.83;;
23680;SDS011;62915;50.832;4.462;2022-11-20T08:04:08;85.53;;;32.33;;
23680;SDS011;62915;50.832;4.462;2022-11-20T08:06:35;82.72;;;31.05;;
23680;SDS011;62915;50.832;4.462;2022-11-20T08:09:01;83.57;;;31.77;;
23680;SDS011;62915;50.832;4.462;2022-11-20T08:11:27;88.22;;;32.63;;
23680;SDS011;62915;50.832;4.462;2022-11-20T08:14:12;94.78;;;37.88;;
23680;SDS011;62915;50.832;4.462;2022-11-20T08:16:38;91.28;;;36.35;;
23680;SDS011;62915;50.832;4.462;2022-11-20T08:19:04;87.68;;;36.47;;
23680;SDS011;62915;50.832;4.462;2022-11-20T08:21:30;84.40;;;33.95;;
23680;SDS011;62915;50.832;4.462;2022-11-20T08:23:56;89.78;;;34.25;;
23680;SDS011;62915;50.832;4.462;2022-11-20T08:26:23;113.13;;;42.63;;
23680;SDS011;62915;50.832;4.462;2022-11-20T08:28:49;88.55;;;35.25;;
23680;SDS011;62915;50.832;4.462;2022-11-20T08:31:19;92.00;;;35.75;;
23680;SDS011;62915;50.832;4.462;2022-11-20T08:33:45;91.68;;;36.08;;
23680;SDS011;62915;50.832;4.462;2022-11-20T08:36:10;98.78;;;32.13;;
23680;SDS011;62915;50.832;4.462;2022-11-20T08:38:36;95.03;;;34.08;;
23680;SDS011;62915;50.832;4.462;2022-11-20T08:41:04;100.68;;;31.50;;
23680;SDS011;62915;50.832;4.462;2022-11-20T08:44:01;76.57;;;29.25;;
23680;SDS011;62915;50.832;4.462;2022-11-20T08:46:32;90.53;;;34.03;;
23680;SDS011;62915;50.832;4.462;2022-11-20T08:49:00;74.40;;;29.25;;
23680;SDS011;62915;50.832;4.462;2022-11-20T08:51:26;74.15;;;30.55;;
23680;SDS011;62915;50.832;4.462;2022-11-20T08:53:51;84.75;;;37.50;;
23680;SDS011;62915;50.832;4.462;2022-11-20T08:56:17;85.78;;;32.15;;
23680;SDS011;62915;50.832;4.462;2022-11-20T08:58:43;78.50;;;32.67;;
23680;SDS011;62915;50.832;4.462;2022-11-20T09:01:10;115.18;;;48.85;;
23680;SDS011;62915;50.832;4.462;2022-11-20T09:03:37;114.60;;;50.45;;
23680;SDS011;62915;50.832;4.462;2022-11-20T09:06:04;99.80;;;41.00;;
23680;SDS011;62915;50.832;4.462;2022-11-20T09:08:31;85.55;;;37.58;;
23680;SDS011;62915;50.832;4.462;2022-11-20T09:10:58;83.60;;;37.95;;
23680;SDS011;62915;50.832;4.462;2022-11-20T09:13:25;72.80;;;29.80;;
23680;SDS011;62915;50.832;4.462;2022-11-20T09:16:01;90.00;;;37.45;;
23680;SDS011;62915;50.832;4.462;2022-11-20T09:18:30;76.18;;;30.35;;
23680;SDS011;62915;50.832;4.462;2022-11-20T09:20:59;69.10;;;29.30;;
23680;SDS011;62915;50.832;4.462;2022-11-20T09:23:26;75.35;;;33.38;;
23680;SDS011;62915;50.832;4.462;2022-11-20T09:25:52;80.13;;;34.65;;
23680;SDS011;62915;50.832;4.462;2022-11-20T09:28:20;74.63;;;32.40;;
23680;SDS011;62915;50.832;4.462;2022-11-20T09:30:46;80.88;;;34.47;;
23680;SDS011;62915;50.832;4.462;2022-11-20T09:33:12;71.50;;;30.83;;
23680;SDS011;62915;50.832;4.462;2022-11-20T09:35:38;81.05;;;35.95;;
23680;SDS011;62915;50.832;4.462;2022-11-20T09:38:07;71.63;;;31.60;;
23680;SDS011;62915;50.832;4.462;2022-11-20T09:40:34;82.20;;;34.22;;
23680;SDS011;62915;50.832;4.462;2022-11-20T09:46:29;81.93;;;36.83;;
23680;SDS011;62915;50.832;4.462;2022-11-20T09:54:22;60.63;;;29.55;;
23680;SDS011;62915;50.832;4.462;2022-11-20T09:57:15;48.80;;;25.02;;
23680;SDS011;62915;50.832;4.462;2022-11-20T09:59:49;55.28;;;26.67;;
23680;SDS011;62915;50.832;4.462;2022-11-20T10:10:41;56.78;;;29.67;;
23680;SDS011;62915;50.832;4.462;2022-11-20T10:30:33;48.65;;;22.42;;
23680;SDS011;62915;50.832;4.462;2022-11-20T10:33:11;41.00;;;21.77;;
23680;SDS011;62915;50.832;4.462;2022-11-20T10:35:42;54.65;;;26.58;;
23680;SDS011;62915;50.832;4.462;2022-11-20T10:41:42;26.17;;;12.68;;
23680;SDS011;62915;50.832;4.462;2022-11-20T10:44:21;34.83;;;16.05;;
23680;SDS011;62915;50.832;4.462;2022-11-20T10:47:16;37.47;;;17.55;;
23680;SDS011;62915;50.832;4.462;2022-11-20T10:49:47;26.15;;;12.45;;
23680;SDS011;62915;50.832;4.462;2022-11-20T10:58:21;14.17;;;8.40;;
23680;SDS011;62915;50.832;4.462;2022-11-20T11:01:03;21.05;;;9.13;;
23680;SDS011;62915;50.832;4.462;2022-11-20T11:03:50;18.83;;;8.55;;
23680;SDS011;62915;50.832;4.462;2022-11-20T11:06:39;37.55;;;20.80;;
23680;SDS011;62915;50.832;4.462;2022-11-20T11:09:11;13.90;;;7.20;;
23680;SDS011;62915;50.832;4.462;2022-11-20T11:11:42;13.55;;;5.75;;
23680;SDS011;62915;50.832;4.462;2022-11-20T11:14:12;12.05;;;4.85;;
23680;SDS011;62915;50.832;4.462;2022-11-20T11:16:49;13.25;;;4.65;;
23680;SDS011;62915;50.832;4.462;2022-11-20T11:19:24;14.23;;;5.80;;
23680;SDS011;62915;50.832;4.462;2022-11-20T11:21:51;8.30;;;4.57;;
23680;SDS011;62915;50.832;4.462;2022-11-20T11:24:23;11.60;;;4.13;;
23680;SDS011;62915;50.832;4.462;2022-11-20T11:26:59;9.65;;;4.30;;
23680;SDS011;62915;50.832;4.462;2022-11-20T11:29:31;9.13;;;4.70;;
23680;SDS011;62915;50.832;4.462;2022-11-20T11:32:08;8.30;;;3.83;;
23680;SDS011;62915;50.832;4.462;2022-11-20T11:34:39;10.23;;;4.57;;
23680;SDS011;62915;50.832;4.462;2022-11-20T11:37:10;13.57;;;6.05;;
23680;SDS011;62915;50.832;4.462;2022-11-20T11:39:44;12.38;;;5.70;;
23680;SDS011;62915;50.832;4.462;2022-11-20T11:42:13;10.65;;;4.13;;
23680;SDS011;62915;50.832;4.462;2022-11-20T11:44:44;7.25;;;3.85;;
23680;SDS011;62915;50.832;4.462;2022-11-20T11:47:36;7.22;;;3.80;;
23680;SDS011;62915;50.832;4.462;2022-11-20T11:55:35;6.63;;;2.92;;
23680;SDS011;62915;50.832;4.462;2022-11-20T12:01:01;15.70;;;6.55;;
23680;SDS011;62915;50.832;4.462;2022-11-20T12:04:04;11.65;;;5.18;;
23680;SDS011;62915;50.832;4.462;2022-11-20T12:07:24;13.90;;;8.07;;
23680;SDS011;62915;50.832;4.462;2022-11-20T12:10:14;7.30;;;4.47;;
23680;SDS011;62915;50.832;4.462;2022-11-20T12:13:15;7.55;;;3.20;;
23680;SDS011;62915;50.832;4.462;2022-11-20T12:15:59;5.15;;;3.30;;
23680;SDS011;62915;50.832;4.462;2022-11-20T12:18:29;8.38;;;3.72;;
23680;SDS011;62915;50.832;4.462;2022-11-20T12:23:52;7.53;;;3.38;;
23680;SDS011;62915;50.832;4.462;2022-11-20T12:32:16;7.97;;;4.45;;
23680;SDS011;62915;50.832;4.462;2022-11-20T12:59:33;8.18;;;4.53;;
23680;SDS011;62915;50.832;4.462;2022-11-20T13:07:28;12.52;;;6.60;;
23680;SDS011;62915;50.832;4.462;2022-11-20T13:09:55;12.50;;;5.57;;
23680;SDS011;62915;50.832;4.462;2022-11-20T13:17:59;13.88;;;7.32;;
23680;SDS011;62915;50.832;4.462;2022-11-20T13:20:27;11.82;;;7.28;;
23680;SDS011;62915;50.832;4.462;2022-11-20T13:22:55;49.35;;;16.00;;
23680;SDS011;62915;50.832;4.462;2022-11-20T13:25:26;48.90;;;15.80;;
23680;SDS011;62915;50.832;4.462;2022-11-20T13:27:54;104.22;;;26.40;;
23680;SDS011;62915;50.832;4.462;2022-11-20T13:30:24;14.38;;;7.90;;
23680;SDS011;62915;50.832;4.462;2022-11-20T13:32:55;11.60;;;4.95;;
23680;SDS011;62915;50.832;4.462;2022-11-20T13:35:26;6.45;;;3.80;;
23680;SDS011;62915;50.832;4.462;2022-11-20T13:38:00;6.50;;;4.25;;
23680;SDS011;62915;50.832;4.462;2022-11-20T13:40:26;10.13;;;3.95;;
23680;SDS011;62915;50.832;4.462;2022-11-20T13:45:41;10.70;;;4.50;;
23680;SDS011;62915;50.832;4.462;2022-11-20T13:48:19;5.97;;;3.97;;
23680;SDS011;62915;50.832;4.462;2022-11-20T13:57:11;3.70;;;3.30;;
23680;SDS011;62915;50.832;4.462;2022-11-20T14:02:59;5.28;;;3.05;;
23680;SDS011;62915;50.832;4.462;2022-11-20T14:05:26;6.28;;;3.33;;
23680;SDS011;62915;50.832;4.462;2022-11-20T14:07:52;5.70;;;3.50;;
23680;SDS011;62915;50.832;4.462;2022-11-20T14:10:20;4.18;;;3.05;;
23680;SDS011;62915;50.832;4.462;2022-11-20T14:12:48;7.90;;;3.80;;
23680;SDS011;62915;50.832;4.462;2022-11-20T14:15:25;5.45;;;2.72;;
23680;SDS011;62915;50.832;4.462;2022-11-20T14:17:53;3.50;;;2.80;;
23680;SDS011;62915;50.832;4.462;2022-11-20T14:20:19;7.03;;;3.55;;
23680;SDS011;62915;50.832;4.462;2022-11-20T14:22:51;3.85;;;3.25;;
23680;SDS011;62915;50.832;4.462;2022-11-20T14:25:19;3.83;;;2.55;;
23680;SDS011;62915;50.832;4.462;2022-11-20T14:27:55;4.35;;;2.80;;
23680;SDS011;62915;50.832;4.462;2022-11-20T14:30:27;3.00;;;2.33;;
23680;SDS011;62915;50.832;4.462;2022-11-20T14:33:01;2.80;;;2.45;;
23680;SDS011;62915;50.832;4.462;2022-11-20T14:35:33;3.40;;;2.47;;
23680;SDS011;62915;50.832;4.462;2022-11-20T14:38:02;4.28;;;2.60;;
23680;SDS011;62915;50.832;4.462;2022-11-20T14:40:33;6.10;;;3.17;;
23680;SDS011;62915;50.832;4.462;2022-11-20T14:43:00;10.40;;;4.85;;
23680;SDS011;62915;50.832;4.462;2022-11-20T14:45:27;5.88;;;4.28;;
23680;SDS011;62915;50.832;4.462;2022-11-20T14:47:54;3.53;;;2.70;;
23680;SDS011;62915;50.832;4.462;2022-11-20T14:50:27;6.30;;;3.97;;
23680;SDS011;62915;50.832;4.462;2022-11-20T14:52:55;8.15;;;3.72;;
23680;SDS011;62915;50.832;4.462;2022-11-20T14:57:56;6.72;;;3.97;;
23680;SDS011;62915;50.832;4.462;2022-11-20T15:00:24;4.32;;;3.58;;
23680;SDS011;62915;50.832;4.462;2022-11-20T15:02:52;5.90;;;3.65;;
23680;SDS011;62915;50.832;4.462;2022-11-20T15:05:18;12.80;;;9.00;;
23680;SDS011;62915;50.832;4.462;2022-11-20T15:07:50;8.75;;;4.80;;
23680;SDS011;62915;50.832;4.462;2022-11-20T15:10:28;6.25;;;4.10;;
23680;SDS011;62915;50.832;4.462;2022-11-20T15:12:55;7.15;;;4.63;;
23680;SDS011;62915;50.832;4.462;2022-11-20T15:15:35;5.97;;;4.40;;
23680;SDS011;62915;50.832;4.462;2022-11-20T15:18:04;9.80;;;5.63;;
23680;SDS011;62915;50.832;4.462;2022-11-20T15:20:31;8.95;;;4.82;;
23680;SDS011;62915;50.832;4.462;2022-11-20T15:22:58;8.65;;;5.38;;
23680;SDS011;62915;50.832;4.462;2022-11-20T15:25:24;6.97;;;4.70;;
23680;SDS011;62915;50.832;4.462;2022-11-20T15:27:54;12.50;;;5.85;;
23680;SDS011;62915;50.832;4.462;2022-11-20T15:30:21;11.43;;;6.45;;
23680;SDS011;62915;50.832;4.462;2022-11-20T15:32:48;10.10;;;6.30;;
23680;SDS011;62915;50.832;4.462;2022-11-20T15:35:14;7.40;;;4.90;;
23680;SDS011;62915;50.832;4.462;2022-11-20T15:37:40;9.38;;;5.53;;
23680;SDS011;62915;50.832;4.462;2022-11-20T15:40:07;8.20;;;5.80;;
23680;SDS011;62915;50.832;4.462;2022-11-20T15:42:33;7.43;;;5.13;;
23680;SDS011;62915;50.832;4.462;2022-11-20T15:45:00;10.90;;;6.35;;
23680;SDS011;62915;50.832;4.462;2022-11-20T15:47:31;8.30;;;5.63;;
23680;SDS011;62915;50.832;4.462;2022-11-20T15:49:59;9.27;;;6.10;;
23680;SDS011;62915;50.832;4.462;2022-11-20T15:52:25;13.90;;;5.35;;
23680;SDS011;62915;50.832;4.462;2022-11-20T15:54:51;8.43;;;6.22;;
23680;SDS011;62915;50.832;4.462;2022-11-20T15:57:16;10.32;;;6.00;;
23680;SDS011;62915;50.832;4.462;2022-11-20T15:59:42;10.95;;;6.30;;
23680;SDS011;62915;50.832;4.462;2022-11-20T16:02:11;10.20;;;6.75;;
23680;SDS011;62915;50.832;4.462;2022-11-20T16:04:38;16.23;;;5.90;;
23680;SDS011;62915;50.832;4.462;2022-11-20T16:07:04;11.23;;;6.10;;
23680;SDS011;62915;50.832;4.462;2022-11-20T16:09:29;12.25;;;5.80;;
23680;SDS011;62915;50.832;4.462;2022-11-20T16:11:55;12.57;;;5.75;;
23680;SDS011;62915;50.832;4.462;2022-11-20T16:14:24;11.90;;;6.22;;
23680;SDS011;62915;50.832;4.462;2022-11-20T16:17:08;15.35;;;6.05;;
23680;SDS011;62915;50.832;4.462;2022-11-20T16:19:34;12.25;;;5.90;;
23680;SDS011;62915;50.832;4.462;2022-11-20T16:21:59;12.55;;;4.53;;
23680;SDS011;62915;50.832;4.462;2022-11-20T16:24:28;17.17;;;5.43;;
23680;SDS011;62915;50.832;4.462;2022-11-20T16:26:54;19.75;;;7.25;;
23680;SDS011;62915;50.832;4.462;2022-11-20T16:29:20;11.35;;;5.68;;
23680;SDS011;62915;50.832;4.462;2022-11-20T16:31:46;14.13;;;6.18;;
23680;SDS011;62915;50.832;4.462;2022-11-20T16:34:11;17.95;;;6.57;;
23680;SDS011;62915;50.832;4.462;2022-11-20T16:36:39;15.30;;;6.88;;
23680;SDS011;62915;50.832;4.462;2022-11-20T16:39:06;14.38;;;6.22;;
23680;SDS011;62915;50.832;4.462;2022-11-20T16:41:33;14.68;;;5.85;;
23680;SDS011;62915;50.832;4.462;2022-11-20T16:44:00;17.98;;;5.18;;